createdAt,value
2019-06-01T00:02:11.574Z,14.80
2019-06-01T00:04:40.941Z,14.80
2019-06-01T00:07:08.335Z,14.80
2019-06-01T00:09:35.789Z,14.80
2019-06-01T00:12:03.270Z,14.80
2019-06-01T00:14:30.797Z,14.80
2019-06-01T00:16:58.112Z,14.70
2019-06-01T00:19:25.382Z,14.70
2019-06-01T00:21:54.257Z,14.70
2019-06-01T00:24:21.523Z,14.70
2019-06-01T00:26:49.904Z,14.60
2019-06-01T00:29:17.621Z,14.60
2019-06-01T00:31:45.339Z,14.60
2019-06-01T00:34:12.852Z,14.60
2019-06-01T00:36:41.539Z,14.60
2019-06-01T00:39:08.773Z,14.50
2019-06-01T00:41:36.041Z,14.50
2019-06-01T00:44:03.662Z,14.50
2019-06-01T00:46:31.082Z,14.50
2019-06-01T00:48:58.369Z,14.40
2019-06-01T00:51:25.835Z,14.40
2019-06-01T00:53:55.277Z,14.40
2019-06-01T00:56:22.624Z,14.40
2019-06-01T00:58:49.881Z,14.40
2019-06-01T01:01:17.328Z,14.30
2019-06-01T01:03:45.994Z,14.30
2019-06-01T01:06:13.558Z,14.30
2019-06-01T01:08:40.763Z,14.30
2019-06-01T01:11:08.102Z,14.20
2019-06-01T01:13:35.406Z,14.20
2019-06-01T01:16:02.852Z,14.20
2019-06-01T01:18:30.174Z,14.20
2019-06-01T01:20:57.692Z,14.20
2019-06-01T01:23:25.137Z,14.20
2019-06-01T01:25:52.641Z,14.20
2019-06-01T01:28:20.187Z,14.10
2019-06-01T01:31:03.031Z,14.10
2019-06-01T01:33:16.965Z,14.10
2019-06-01T01:35:45.331Z,14.00
2019-06-01T01:38:12.742Z,14.00
2019-06-01T01:40:40.079Z,14.00
2019-06-01T01:43:07.308Z,14.00
2019-06-01T01:45:34.776Z,14.00
2019-06-01T01:48:02.129Z,13.90
2019-06-01T01:50:29.812Z,13.90
2019-06-01T01:52:59.005Z,13.90
2019-06-01T01:55:26.790Z,13.90
2019-06-01T01:57:55.361Z,13.80
2019-06-01T02:00:36.100Z,13.80
2019-06-01T02:03:05.308Z,13.80
2019-06-01T02:05:33.141Z,13.80
2019-06-01T02:08:01.983Z,13.80
2019-06-01T02:10:29.755Z,13.70
2019-06-01T02:12:57.569Z,13.70
2019-06-01T02:15:25.407Z,13.70
2019-06-01T02:17:53.931Z,13.70
2019-06-01T02:20:21.489Z,13.60
2019-06-01T02:22:49.192Z,13.60
2019-06-01T02:25:17.075Z,13.60
2019-06-01T02:27:44.775Z,13.50
2019-06-01T02:30:14.835Z,13.60
2019-06-01T02:32:42.532Z,13.50
2019-06-01T02:35:11.374Z,13.50
2019-06-01T02:37:39.188Z,13.50
2019-06-01T02:40:07.616Z,13.50
2019-06-01T02:42:35.359Z,13.40
2019-06-01T02:45:04.052Z,13.40
2019-06-01T02:47:33.165Z,13.40
2019-06-01T02:50:04.266Z,13.40
2019-06-01T02:52:31.705Z,13.40
2019-06-01T02:54:59.646Z,13.40
2019-06-01T02:57:27.635Z,13.30
2019-06-01T02:59:56.243Z,13.30
2019-06-01T03:02:24.062Z,13.30
2019-06-01T03:04:51.778Z,13.20
2019-06-01T03:07:20.073Z,13.20
2019-06-01T03:09:48.070Z,13.20
2019-06-01T03:12:18.442Z,13.20
2019-06-01T03:14:48.590Z,13.20
2019-06-01T03:17:18.965Z,13.20
2019-06-01T03:19:49.403Z,13.10
2019-06-01T03:22:20.788Z,13.10
2019-06-01T03:24:51.861Z,13.10
2019-06-01T03:27:21.695Z,13.10
2019-06-01T03:29:54.907Z,13.10
2019-06-01T03:32:35.168Z,13.10
2019-06-01T03:34:52.208Z,13.10
2019-06-01T03:37:19.877Z,13.10
2019-06-01T03:39:48.186Z,13.00
2019-06-01T03:42:16.353Z,13.00
2019-06-01T03:44:44.220Z,13.00
2019-06-01T03:47:12.010Z,13.00
2019-06-01T03:49:46.077Z,13.00
2019-06-01T03:52:14.261Z,13.00
2019-06-01T03:54:42.955Z,13.00
2019-06-01T03:57:11.261Z,13.00
2019-06-01T03:59:39.163Z,12.90
2019-06-01T04:02:07.110Z,13.00
2019-06-01T04:04:34.913Z,12.90
2019-06-01T04:07:03.433Z,12.90
2019-06-01T04:09:31.175Z,12.90
2019-06-01T04:11:58.749Z,12.90
2019-06-01T04:14:26.384Z,12.90
2019-06-01T04:16:54.140Z,12.90
2019-06-01T04:19:21.810Z,13.00
2019-06-01T04:21:49.444Z,13.00
2019-06-01T04:24:17.048Z,13.00
2019-06-01T04:26:44.730Z,13.00
2019-06-01T04:29:12.666Z,13.00
2019-06-01T04:31:40.291Z,13.10
2019-06-01T04:34:08.811Z,13.10
2019-06-01T04:36:36.516Z,13.20
2019-06-01T04:39:07.215Z,13.20
2019-06-01T04:41:35.019Z,13.20
2019-06-01T04:44:03.754Z,13.20
2019-06-01T04:46:31.466Z,13.20
2019-06-01T04:49:00.266Z,13.30
2019-06-01T04:51:27.912Z,13.30
2019-06-01T04:53:55.627Z,13.40
2019-06-01T04:56:23.207Z,13.40
2019-06-01T04:58:50.920Z,13.50
2019-06-01T05:01:18.643Z,13.50
2019-06-01T05:03:46.250Z,13.60
2019-06-01T05:06:13.865Z,13.60
2019-06-01T05:08:41.530Z,13.70
2019-06-01T05:11:10.255Z,13.70
2019-06-01T05:13:38.559Z,13.80
2019-06-01T05:16:07.832Z,13.90
2019-06-01T05:18:35.585Z,13.90
2019-06-01T05:21:03.379Z,14.00
2019-06-01T05:23:31.286Z,14.00
2019-06-01T05:25:59.101Z,14.10
2019-06-01T05:28:26.785Z,14.20
2019-06-01T05:30:54.568Z,14.20
2019-06-01T05:33:36.556Z,14.30
2019-06-01T05:35:51.824Z,14.40
2019-06-01T05:38:19.666Z,14.50
2019-06-01T05:40:47.378Z,14.60
2019-06-01T05:43:18.916Z,14.70
2019-06-01T05:45:46.146Z,14.70
2019-06-01T05:48:20.848Z,14.80
2019-06-01T05:50:43.530Z,14.90
2019-06-01T05:53:11.127Z,15.00
2019-06-01T05:55:39.037Z,15.10
2019-06-01T05:58:07.150Z,15.20
2019-06-01T06:00:41.759Z,15.30
2019-06-01T06:03:14.408Z,15.40
2019-06-01T06:05:38.892Z,15.50
2019-06-01T06:08:06.580Z,15.60
2019-06-01T06:10:34.512Z,15.70
2019-06-01T06:13:02.442Z,15.80
2019-06-01T06:15:29.989Z,15.90
2019-06-01T06:17:57.567Z,16.10
2019-06-01T06:20:25.626Z,16.20
2019-06-01T06:22:53.369Z,16.30
2019-06-01T06:25:21.069Z,16.40
2019-06-01T06:27:48.821Z,16.50
2019-06-01T06:30:16.987Z,16.50
2019-06-01T06:32:44.815Z,16.70
2019-06-01T06:35:13.274Z,16.80
2019-06-01T06:37:42.420Z,16.90
2019-06-01T06:40:11.463Z,17.00
2019-06-01T06:42:39.239Z,17.10
2019-06-01T06:45:07.177Z,17.20
2019-06-01T06:47:35.859Z,17.40
2019-06-01T06:50:03.751Z,17.40
2019-06-01T06:52:31.490Z,17.50
2019-06-01T06:54:59.387Z,17.60
2019-06-01T06:57:27.061Z,17.60
2019-06-01T06:59:54.742Z,17.80
2019-06-01T07:02:22.896Z,17.90
2019-06-01T07:04:50.843Z,18.00
2019-06-01T07:07:19.566Z,18.00
2019-06-01T07:09:47.372Z,18.20
2019-06-01T07:12:15.153Z,18.20
2019-06-01T07:14:42.813Z,18.30
2019-06-01T07:17:10.594Z,18.40
2019-06-01T07:19:38.228Z,18.50
2019-06-01T07:22:06.056Z,18.60
2019-06-01T07:24:33.744Z,18.60
2019-06-01T07:27:01.477Z,18.70
2019-06-01T07:29:29.092Z,18.80
2019-06-01T07:31:57.864Z,18.90
2019-06-01T07:34:36.091Z,18.90
2019-06-01T07:36:55.274Z,19.00
2019-06-01T07:39:22.982Z,19.10
2019-06-01T07:41:50.649Z,19.30
2019-06-01T07:44:18.401Z,19.40
2019-06-01T07:46:46.174Z,19.50
2019-06-01T07:49:13.814Z,19.50
2019-06-01T07:51:41.487Z,19.60
2019-06-01T07:54:09.131Z,19.70
2019-06-01T07:56:36.863Z,19.80
2019-06-01T07:59:04.676Z,19.90
2019-06-01T08:01:32.900Z,19.90
2019-06-01T08:04:00.763Z,20.10
2019-06-01T08:06:30.251Z,20.10
2019-06-01T08:08:58.094Z,20.20
2019-06-01T08:11:29.526Z,20.30
2019-06-01T08:13:55.185Z,20.40
2019-06-01T08:16:23.679Z,20.50
2019-06-01T08:18:53.226Z,20.60
2019-06-01T08:21:21.826Z,20.60
2019-06-01T08:23:49.531Z,20.60
2019-06-01T08:26:19.970Z,20.80
2019-06-01T08:28:46.664Z,20.90
2019-06-01T08:31:14.427Z,21.10
2019-06-01T08:33:42.116Z,21.10
2019-06-01T08:36:09.778Z,21.20
2019-06-01T08:38:37.466Z,21.30
2019-06-01T08:41:05.102Z,21.30
2019-06-01T08:43:33.908Z,21.30
2019-06-01T08:46:01.742Z,21.40
2019-06-01T08:48:29.908Z,21.40
2019-06-01T08:50:57.534Z,21.50
2019-06-01T08:53:25.797Z,21.60
2019-06-01T08:55:53.415Z,21.60
2019-06-01T08:58:21.226Z,21.70
2019-06-01T09:00:48.953Z,21.70
2019-06-01T09:03:16.876Z,21.70
2019-06-01T09:05:44.353Z,21.60
2019-06-01T09:08:11.970Z,21.60
2019-06-01T09:10:39.542Z,21.60
2019-06-01T09:13:07.290Z,21.70
2019-06-01T09:15:35.559Z,21.60
2019-06-01T09:18:03.386Z,21.60
2019-06-01T09:20:35.306Z,21.60
2019-06-01T09:23:00.749Z,21.60
2019-06-01T09:25:29.553Z,21.70
2019-06-01T09:27:57.335Z,21.80
2019-06-01T09:30:25.900Z,21.90
2019-06-01T09:32:53.818Z,22.00
2019-06-01T09:35:21.648Z,22.10
2019-06-01T09:37:49.388Z,22.10
2019-06-01T09:40:17.178Z,22.00
2019-06-01T09:42:44.931Z,22.10
2019-06-01T09:45:12.823Z,22.20
2019-06-01T09:47:40.535Z,22.20
2019-06-01T09:50:08.868Z,22.30
2019-06-01T09:52:37.707Z,22.30
2019-06-01T09:55:06.288Z,22.30
2019-06-01T09:57:34.213Z,22.50
2019-06-01T10:00:02.093Z,22.50
2019-06-01T10:02:32.088Z,22.50
2019-06-01T10:04:59.987Z,22.60
2019-06-01T10:07:29.179Z,22.70
2019-06-01T10:09:56.845Z,22.80
2019-06-01T10:12:24.741Z,22.80
2019-06-01T10:14:52.809Z,22.80
2019-06-01T10:17:20.435Z,22.60
2019-06-01T10:19:48.114Z,22.60
2019-06-01T10:22:15.915Z,22.70
2019-06-01T10:24:43.558Z,22.80
2019-06-01T10:27:11.184Z,23.00
2019-06-01T10:29:39.900Z,23.10
2019-06-01T10:32:07.887Z,23.00
2019-06-01T10:34:37.750Z,23.00
2019-06-01T10:37:05.486Z,23.10
2019-06-01T10:39:33.138Z,23.00
2019-06-01T10:42:01.022Z,23.00
2019-06-01T10:44:28.785Z,23.10
2019-06-01T10:46:56.661Z,23.10
2019-06-01T10:49:24.464Z,23.00
2019-06-01T10:51:52.205Z,23.00
2019-06-01T10:54:19.816Z,23.20
2019-06-01T10:56:47.561Z,23.30
2019-06-01T10:59:15.327Z,23.50
2019-06-01T11:01:43.128Z,23.50
2019-06-01T11:04:13.943Z,23.60
2019-06-01T11:06:46.503Z,23.50
2019-06-01T11:09:11.025Z,23.50
2019-06-01T11:11:39.080Z,23.50
2019-06-01T11:14:06.763Z,23.50
2019-06-01T11:16:35.172Z,23.60
2019-06-01T11:19:02.847Z,23.60
2019-06-01T11:21:30.448Z,23.70
2019-06-01T11:23:58.007Z,23.80
2019-06-01T11:26:25.688Z,23.90
2019-06-01T11:28:53.424Z,23.80
2019-06-01T11:31:21.471Z,23.60
2019-06-01T11:33:49.261Z,23.50
2019-06-01T11:36:17.035Z,23.60
2019-06-01T11:38:45.152Z,23.70
2019-06-01T11:41:12.940Z,23.70
2019-06-01T11:43:40.715Z,23.70
2019-06-01T11:46:08.379Z,23.70
2019-06-01T11:48:37.161Z,23.60
2019-06-01T11:51:05.031Z,23.70
2019-06-01T11:53:32.708Z,23.80
2019-06-01T11:56:00.600Z,23.90
2019-06-01T11:58:28.450Z,23.90
2019-06-01T12:00:56.138Z,23.90
2019-06-01T12:03:24.056Z,23.90
2019-06-01T12:05:51.763Z,24.00
2019-06-01T12:08:19.406Z,24.00
2019-06-01T12:10:47.764Z,24.00
2019-06-01T12:13:15.544Z,23.90
2019-06-01T12:15:44.185Z,23.80
2019-06-01T12:18:12.129Z,23.80
2019-06-01T12:20:40.841Z,23.80
2019-06-01T12:23:08.451Z,23.80
2019-06-01T12:25:35.963Z,24.00
2019-06-01T12:28:03.666Z,24.10
2019-06-01T12:30:31.380Z,24.20
2019-06-01T12:32:59.003Z,24.20
2019-06-01T12:35:27.074Z,24.20
2019-06-01T12:38:05.697Z,24.20
2019-06-01T12:40:24.811Z,24.20
2019-06-01T12:42:52.739Z,24.20
2019-06-01T12:45:23.060Z,24.20
2019-06-01T12:47:57.532Z,24.20
2019-06-01T12:50:19.806Z,24.20
2019-06-01T12:52:48.599Z,24.20
2019-06-01T12:55:16.787Z,24.30
2019-06-01T12:57:44.920Z,24.10
2019-06-01T13:00:15.501Z,24.30
2019-06-01T13:02:46.424Z,24.40
2019-06-01T13:05:13.354Z,24.20
2019-06-01T13:07:53.017Z,24.30
2019-06-01T13:10:10.719Z,24.30
2019-06-01T13:12:38.242Z,24.40
2019-06-01T13:15:06.201Z,24.40
2019-06-01T13:17:34.067Z,24.40
2019-06-01T13:20:01.811Z,24.40
2019-06-01T13:22:30.054Z,24.50
2019-06-01T13:24:57.636Z,24.50
2019-06-01T13:27:25.719Z,24.50
2019-06-01T13:29:53.413Z,24.40
2019-06-01T13:32:20.989Z,24.50
2019-06-01T13:34:49.202Z,24.50
2019-06-01T13:37:17.393Z,24.50
2019-06-01T13:39:46.423Z,24.60
2019-06-01T13:42:14.674Z,24.60
2019-06-01T13:44:43.374Z,24.60
2019-06-01T13:47:11.160Z,24.70
2019-06-01T13:49:38.584Z,24.80
2019-06-01T13:52:06.401Z,24.90
2019-06-01T13:54:34.044Z,24.90
2019-06-01T13:57:01.648Z,24.90
2019-06-01T13:59:29.368Z,25.00
2019-06-01T14:01:57.209Z,25.00
2019-06-01T14:04:24.742Z,25.00
2019-06-01T14:06:53.154Z,25.00
2019-06-01T14:09:22.067Z,25.10
2019-06-01T14:11:51.205Z,25.20
2019-06-01T14:14:19.201Z,25.20
2019-06-01T14:16:47.490Z,25.30
2019-06-01T14:19:15.333Z,25.40
2019-06-01T14:21:43.148Z,25.40
2019-06-01T14:24:11.145Z,25.50
2019-06-01T14:26:38.812Z,25.60
2019-06-01T14:29:06.678Z,25.60
2019-06-01T14:31:34.429Z,25.60
2019-06-01T14:34:01.934Z,25.70
2019-06-01T14:36:29.767Z,25.80
2019-06-01T14:38:58.863Z,25.90
2019-06-01T14:41:26.547Z,25.90
2019-06-01T14:43:56.336Z,26.00
2019-06-01T14:46:24.214Z,26.10
2019-06-01T14:48:52.008Z,26.20
2019-06-01T14:51:19.704Z,26.30
2019-06-01T14:53:47.556Z,26.50
2019-06-01T14:56:15.181Z,26.60
2019-06-01T14:58:42.969Z,26.70
2019-06-01T15:01:10.744Z,26.70
2019-06-01T15:03:38.377Z,26.90
2019-06-01T15:06:05.956Z,27.00
2019-06-01T15:08:34.697Z,27.10
2019-06-01T15:11:02.386Z,27.20
2019-06-01T15:13:29.955Z,27.40
2019-06-01T15:15:58.671Z,27.60
2019-06-01T15:18:26.619Z,27.70
2019-06-01T15:20:54.332Z,27.90
2019-06-01T15:23:23.136Z,28.00
2019-06-01T15:25:52.245Z,28.40
2019-06-01T15:28:20.126Z,28.60
2019-06-01T15:30:47.852Z,28.80
2019-06-01T15:33:15.514Z,29.10
2019-06-01T15:35:43.230Z,29.40
2019-06-01T15:38:11.089Z,29.60
2019-06-01T15:40:39.100Z,30.10
2019-06-01T15:43:06.841Z,30.60
2019-06-01T15:45:34.869Z,30.90
2019-06-01T15:48:02.834Z,31.20
2019-06-01T15:50:30.619Z,31.50
2019-06-01T15:52:59.351Z,31.70
2019-06-01T15:55:27.468Z,32.10
2019-06-01T15:57:55.092Z,32.60
2019-06-01T16:00:22.983Z,33.00
2019-06-01T16:02:50.700Z,33.30
2019-06-01T16:05:18.377Z,33.60
2019-06-01T16:07:46.067Z,33.90
2019-06-01T16:10:13.891Z,33.90
2019-06-01T16:12:41.833Z,34.10
2019-06-01T16:15:09.902Z,34.10
2019-06-01T16:17:37.775Z,34.40
2019-06-01T16:20:06.402Z,34.50
2019-06-01T16:22:35.024Z,34.60
2019-06-01T16:25:02.906Z,34.60
2019-06-01T16:27:30.964Z,34.50
2019-06-01T16:30:01.530Z,34.20
2019-06-01T16:32:29.730Z,33.80
2019-06-01T16:34:58.529Z,33.30
2019-06-01T16:37:26.549Z,32.90
2019-06-01T16:39:59.772Z,32.40
2019-06-01T16:42:23.543Z,32.10
2019-06-01T16:44:51.342Z,31.60
2019-06-01T16:47:20.425Z,31.20
2019-06-01T16:49:47.983Z,30.80
2019-06-01T16:52:15.632Z,30.50
2019-06-01T16:54:43.512Z,30.30
2019-06-01T16:57:11.334Z,29.80
2019-06-01T16:59:38.959Z,29.60
2019-06-01T17:02:07.911Z,29.20
2019-06-01T17:04:36.552Z,28.90
2019-06-01T17:07:05.551Z,28.60
2019-06-01T17:09:34.009Z,28.40
2019-06-01T17:12:03.047Z,28.10
2019-06-01T17:14:30.910Z,27.80
2019-06-01T17:17:05.231Z,27.60
2019-06-01T17:19:33.069Z,27.40
2019-06-01T17:22:01.442Z,27.20
2019-06-01T17:24:29.883Z,27.00
2019-06-01T17:26:57.882Z,26.90
2019-06-01T17:29:26.176Z,26.70
2019-06-01T17:31:56.382Z,26.50
2019-06-01T17:34:24.215Z,26.40
2019-06-01T17:36:51.959Z,26.30
2019-06-01T17:39:20.584Z,26.10
2019-06-01T17:41:48.560Z,26.00
2019-06-01T17:44:16.507Z,25.90
2019-06-01T17:46:53.401Z,25.80
2019-06-01T17:49:13.936Z,25.70
2019-06-01T17:51:41.490Z,25.60
2019-06-01T17:54:09.868Z,25.50
2019-06-01T17:56:37.533Z,25.40
2019-06-01T17:59:05.386Z,25.30
2019-06-01T18:01:33.189Z,25.20
2019-06-01T18:04:01.729Z,25.10
2019-06-01T18:06:30.053Z,25.10
2019-06-01T18:08:57.779Z,25.00
2019-06-01T18:11:25.860Z,24.90
2019-06-01T18:13:54.133Z,24.90
2019-06-01T18:16:22.048Z,24.80
2019-06-01T18:18:49.901Z,24.80
2019-06-01T18:21:17.565Z,24.70
2019-06-01T18:23:45.368Z,24.70
2019-06-01T18:26:13.207Z,24.60
2019-06-01T18:28:41.226Z,24.50
2019-06-01T18:31:08.974Z,24.40
2019-06-01T18:33:36.708Z,24.40
2019-06-01T18:36:05.517Z,24.30
2019-06-01T18:38:33.162Z,24.30
2019-06-01T18:41:10.685Z,24.20
2019-06-01T18:43:31.404Z,24.10
2019-06-01T18:45:58.987Z,24.10
2019-06-01T18:48:26.795Z,24.00
2019-06-01T18:50:54.719Z,23.90
2019-06-01T18:53:22.793Z,23.90
2019-06-01T18:55:50.660Z,23.80
2019-06-01T18:58:18.400Z,23.70
2019-06-01T19:00:46.163Z,23.60
2019-06-01T19:03:15.548Z,23.50
2019-06-01T19:05:43.503Z,23.40
2019-06-01T19:08:11.660Z,23.40
2019-06-01T19:10:39.499Z,23.20
2019-06-01T19:13:07.667Z,23.10
2019-06-01T19:15:35.364Z,23.10
2019-06-01T19:18:03.389Z,23.00
2019-06-01T19:20:33.260Z,22.90
2019-06-01T19:23:00.741Z,22.80
2019-06-01T19:25:28.408Z,22.70
2019-06-01T19:27:56.312Z,22.60
2019-06-01T19:30:40.223Z,22.60
2019-06-01T19:33:10.602Z,22.40
2019-06-01T19:35:38.425Z,22.30
2019-06-01T19:38:07.021Z,22.20
2019-06-01T19:40:39.307Z,22.20
2019-06-01T19:43:09.378Z,22.00
2019-06-01T19:45:37.344Z,21.90
2019-06-01T19:48:08.406Z,21.80
2019-06-01T19:50:36.078Z,21.70
2019-06-01T19:53:04.054Z,21.70
2019-06-01T19:55:31.667Z,21.60
2019-06-01T19:57:59.484Z,21.50
2019-06-01T20:00:27.146Z,21.40
2019-06-01T20:02:54.765Z,21.30
2019-06-01T20:05:23.406Z,21.30
2019-06-01T20:07:51.144Z,21.10
2019-06-01T20:10:18.894Z,21.10
2019-06-01T20:12:46.731Z,21.00
2019-06-01T20:15:15.501Z,21.00
2019-06-01T20:17:43.325Z,20.80
2019-06-01T20:20:12.644Z,20.80
2019-06-01T20:22:40.532Z,20.70
2019-06-01T20:25:08.038Z,20.70
2019-06-01T20:27:36.822Z,20.60
2019-06-01T20:30:05.572Z,20.60
2019-06-01T20:32:35.238Z,20.50
2019-06-01T20:35:03.897Z,20.40
2019-06-01T20:37:31.856Z,20.40
2019-06-01T20:39:59.622Z,20.30
2019-06-01T20:42:32.500Z,20.20
2019-06-01T20:44:57.206Z,20.20
2019-06-01T20:47:26.446Z,20.10
2019-06-01T20:49:54.146Z,20.10
2019-06-01T20:52:23.173Z,20.00
2019-06-01T20:54:51.047Z,19.90
2019-06-01T20:57:19.590Z,19.90
2019-06-01T20:59:47.399Z,19.80
2019-06-01T21:02:15.711Z,19.80
2019-06-01T21:04:43.648Z,19.70
2019-06-01T21:07:11.616Z,19.60
2019-06-01T21:09:39.311Z,19.60
2019-06-01T21:12:08.993Z,19.60
2019-06-01T21:14:37.067Z,19.50
2019-06-01T21:17:05.065Z,19.50
2019-06-01T21:19:34.032Z,19.40
2019-06-01T21:22:01.787Z,19.40
2019-06-01T21:24:29.495Z,19.30
2019-06-01T21:26:57.146Z,19.30
2019-06-01T21:29:25.191Z,19.20
2019-06-01T21:31:52.938Z,19.20
2019-06-01T21:34:22.230Z,19.20
2019-06-01T21:36:52.161Z,19.10
2019-06-01T21:39:25.502Z,19.10
2019-06-01T21:41:59.916Z,19.10
2019-06-01T21:44:32.646Z,19.00
2019-06-01T21:47:00.301Z,19.00
2019-06-01T21:49:30.761Z,18.90
2019-06-01T21:52:03.136Z,18.90
2019-06-01T21:54:38.717Z,18.90
2019-06-01T21:57:12.153Z,18.80
2019-06-01T21:59:40.063Z,18.70
2019-06-01T22:02:07.736Z,18.70
2019-06-01T22:04:45.348Z,18.60
2019-06-01T22:07:15.463Z,18.60
2019-06-01T22:09:43.131Z,18.50
2019-06-01T22:12:10.989Z,18.50
2019-06-01T22:14:38.658Z,18.50
2019-06-01T22:17:06.650Z,18.40
2019-06-01T22:19:34.269Z,18.40
2019-06-01T22:22:02.086Z,18.30
2019-06-01T22:24:29.972Z,18.30
2019-06-01T22:26:57.656Z,18.20
2019-06-01T22:29:26.457Z,18.20
2019-06-01T22:31:54.271Z,18.20
2019-06-01T22:34:22.636Z,18.10
2019-06-01T22:36:50.881Z,18.00
2019-06-01T22:39:19.376Z,18.00
2019-06-01T22:41:49.699Z,17.90
2019-06-01T22:44:17.692Z,17.90
2019-06-01T22:46:45.499Z,17.90
2019-06-01T22:49:13.170Z,17.80
2019-06-01T22:51:40.794Z,17.80
2019-06-01T22:54:08.623Z,17.80
2019-06-01T22:56:36.110Z,17.70
2019-06-01T22:59:03.684Z,17.70
2019-06-01T23:01:31.211Z,17.60
2019-06-01T23:03:58.727Z,17.60
2019-06-01T23:06:27.055Z,17.50
2019-06-01T23:08:54.575Z,17.50
2019-06-01T23:11:23.227Z,17.40
2019-06-01T23:13:53.660Z,17.40
2019-06-01T23:16:21.563Z,17.30
2019-06-01T23:18:49.472Z,17.30
2019-06-01T23:21:16.980Z,17.30
2019-06-01T23:23:44.470Z,17.20
2019-06-01T23:26:12.095Z,17.20
2019-06-01T23:28:39.566Z,17.10
2019-06-01T23:31:07.112Z,17.10
2019-06-01T23:33:34.625Z,17.10
2019-06-01T23:36:02.010Z,17.10
2019-06-01T23:38:30.722Z,17.00
2019-06-01T23:40:58.390Z,17.00
2019-06-01T23:43:26.962Z,16.90
2019-06-01T23:45:54.635Z,16.90
2019-06-01T23:48:23.135Z,16.90
2019-06-01T23:50:51.153Z,16.80
2019-06-01T23:53:18.969Z,16.80
2019-06-01T23:55:46.557Z,16.80
2019-06-01T23:58:14.158Z,16.80
